sensor_id;sensor_type;location;lat;lon;timestamp;temperature;humidity
14182;DHT22;7171;50.936;6.764;2023-07-09T00:00:29;24.30;87.70
14182;DHT22;7171;50.936;6.764;2023-07-09T00:02:55;24.30;87.70
14182;DHT22;7171;50.936;6.764;2023-07-09T00:05:23;24.30;87.90
14182;DHT22;7171;50.936;6.764;2023-07-09T00:07:50;24.30;87.80
14182;DHT22;7171;50.936;6.764;2023-07-09T00:10:19;24.30;87.80
14182;DHT22;7171;50.936;6.764;2023-07-09T00:12:47;24.30;87.90
14182;DHT22;7171;50.936;6.764;2023-07-09T00:15:15;24.30;88.00
14182;DHT22;7171;50.936;6.764;2023-07-09T00:17:44;24.30;88.10
14182;DHT22;7171;50.936;6.764;2023-07-09T00:20:12;24.20;88.10
14182;DHT22;7171;50.936;6.764;2023-07-09T00:22:40;24.20;88.20
14182;DHT22;7171;50.936;6.764;2023-07-09T00:25:10;24.20;88.20
14182;DHT22;7171;50.936;6.764;2023-07-09T00:27:41;24.20;88.20
14182;DHT22;7171;50.936;6.764;2023-07-09T00:30:16;24.20;88.40
14182;DHT22;7171;50.936;6.764;2023-07-09T00:32:43;24.20;88.50
14182;DHT22;7171;50.936;6.764;2023-07-09T00:35:11;24.20;88.50
14182;DHT22;7171;50.936;6.764;2023-07-09T00:37:41;24.20;88.70
14182;DHT22;7171;50.936;6.764;2023-07-09T00:40:14;24.10;88.60
14182;DHT22;7171;50.936;6.764;2023-07-09T00:42:44;24.10;88.60
14182;DHT22;7171;50.936;6.764;2023-07-09T00:45:19;24.10;88.10
14182;DHT22;7171;50.936;6.764;2023-07-09T00:47:49;24.10;88.60
14182;DHT22;7171;50.936;6.764;2023-07-09T00:50:27;24.10;88.70
14182;DHT22;7171;50.936;6.764;2023-07-09T00:52:59;24.00;88.60
14182;DHT22;7171;50.936;6.764;2023-07-09T00:55:30;24.00;88.60
14182;DHT22;7171;50.936;6.764;2023-07-09T00:58:05;24.00;88.60
14182;DHT22;7171;50.936;6.764;2023-07-09T01:00:36;24.00;88.70
14182;DHT22;7171;50.936;6.764;2023-07-09T01:03:15;24.00;88.70
14182;DHT22;7171;50.936;6.764;2023-07-09T01:05:45;24.00;88.60
14182;DHT22;7171;50.936;6.764;2023-07-09T01:08:18;24.00;88.60
14182;DHT22;7171;50.936;6.764;2023-07-09T01:10:45;24.00;88.90
14182;DHT22;7171;50.936;6.764;2023-07-09T01:13:12;24.00;88.80
14182;DHT22;7171;50.936;6.764;2023-07-09T01:15:41;24.00;88.70
14182;DHT22;7171;50.936;6.764;2023-07-09T01:18:08;24.00;88.80
14182;DHT22;7171;50.936;6.764;2023-07-09T01:20:37;24.00;88.80
14182;DHT22;7171;50.936;6.764;2023-07-09T01:23:05;24.00;88.90
14182;DHT22;7171;50.936;6.764;2023-07-09T01:25:34;23.90;89.00
14182;DHT22;7171;50.936;6.764;2023-07-09T01:28:02;23.90;88.40
14182;DHT22;7171;50.936;6.764;2023-07-09T01:30:32;23.80;88.60
14182;DHT22;7171;50.936;6.764;2023-07-09T01:33:01;23.80;89.60
14182;DHT22;7171;50.936;6.764;2023-07-09T01:35:29;23.80;90.00
14182;DHT22;7171;50.936;6.764;2023-07-09T01:37:57;23.80;91.50
14182;DHT22;7171;50.936;6.764;2023-07-09T01:40:26;23.80;87.70
14182;DHT22;7171;50.936;6.764;2023-07-09T01:42:55;23.80;88.40
14182;DHT22;7171;50.936;6.764;2023-07-09T01:45:23;23.80;88.40
14182;DHT22;7171;50.936;6.764;2023-07-09T01:47:51;23.80;88.40
14182;DHT22;7171;50.936;6.764;2023-07-09T01:50:19;23.80;88.60
14182;DHT22;7171;50.936;6.764;2023-07-09T01:52:46;23.80;88.60
14182;DHT22;7171;50.936;6.764;2023-07-09T01:55:15;23.80;89.30
14182;DHT22;7171;50.936;6.764;2023-07-09T01:57:44;23.80;88.60
14182;DHT22;7171;50.936;6.764;2023-07-09T02:00:13;23.80;88.70
14182;DHT22;7171;50.936;6.764;2023-07-09T02:02:40;23.80;88.80
14182;DHT22;7171;50.936;6.764;2023-07-09T02:05:10;23.80;88.80
14182;DHT22;7171;50.936;6.764;2023-07-09T02:07:37;23.80;89.00
14182;DHT22;7171;50.936;6.764;2023-07-09T02:10:05;23.80;90.20
14182;DHT22;7171;50.936;6.764;2023-07-09T02:12:32;23.80;89.50
14182;DHT22;7171;50.936;6.764;2023-07-09T02:15:00;23.80;89.70
14182;DHT22;7171;50.936;6.764;2023-07-09T02:17:27;23.70;89.80
14182;DHT22;7171;50.936;6.764;2023-07-09T02:19:53;23.80;90.00
14182;DHT22;7171;50.936;6.764;2023-07-09T02:22:20;23.70;89.20
14182;DHT22;7171;50.936;6.764;2023-07-09T02:24:47;23.70;89.50
14182;DHT22;7171;50.936;6.764;2023-07-09T02:27:16;23.70;90.00
14182;DHT22;7171;50.936;6.764;2023-07-09T02:29:43;23.70;90.10
14182;DHT22;7171;50.936;6.764;2023-07-09T02:32:16;23.70;90.80
14182;DHT22;7171;50.936;6.764;2023-07-09T02:34:43;23.70;90.20
14182;DHT22;7171;50.936;6.764;2023-07-09T02:37:15;23.70;89.00
14182;DHT22;7171;50.936;6.764;2023-07-09T02:39:42;23.70;88.40
14182;DHT22;7171;50.936;6.764;2023-07-09T02:42:09;23.70;89.20
14182;DHT22;7171;50.936;6.764;2023-07-09T02:44:36;23.70;89.30
14182;DHT22;7171;50.936;6.764;2023-07-09T02:47:04;23.70;89.30
14182;DHT22;7171;50.936;6.764;2023-07-09T02:49:32;23.70;89.30
14182;DHT22;7171;50.936;6.764;2023-07-09T02:51:58;23.60;89.30
14182;DHT22;7171;50.936;6.764;2023-07-09T02:54:25;23.60;89.30
14182;DHT22;7171;50.936;6.764;2023-07-09T02:56:52;23.60;89.40
14182;DHT22;7171;50.936;6.764;2023-07-09T02:59:19;23.60;89.50
14182;DHT22;7171;50.936;6.764;2023-07-09T03:01:46;23.60;90.10
14182;DHT22;7171;50.936;6.764;2023-07-09T03:04:13;23.50;89.90
14182;DHT22;7171;50.936;6.764;2023-07-09T03:06:41;23.50;89.90
14182;DHT22;7171;50.936;6.764;2023-07-09T03:09:09;23.50;89.90
14182;DHT22;7171;50.936;6.764;2023-07-09T03:11:35;23.40;90.00
14182;DHT22;7171;50.936;6.764;2023-07-09T03:14:03;23.40;90.00
14182;DHT22;7171;50.936;6.764;2023-07-09T03:16:32;23.30;89.90
14182;DHT22;7171;50.936;6.764;2023-07-09T03:19:00;23.30;90.10
14182;DHT22;7171;50.936;6.764;2023-07-09T03:21:27;23.20;90.00
14182;DHT22;7171;50.936;6.764;2023-07-09T03:23:56;23.20;90.00
14182;DHT22;7171;50.936;6.764;2023-07-09T03:26:23;23.10;90.20
14182;DHT22;7171;50.936;6.764;2023-07-09T03:28:51;23.20;90.30
14182;DHT22;7171;50.936;6.764;2023-07-09T03:31:18;23.10;90.30
14182;DHT22;7171;50.936;6.764;2023-07-09T03:33:46;23.10;90.30
14182;DHT22;7171;50.936;6.764;2023-07-09T03:36:13;23.10;91.30
14182;DHT22;7171;50.936;6.764;2023-07-09T03:38:40;23.10;91.60
14182;DHT22;7171;50.936;6.764;2023-07-09T03:41:08;23.10;93.80
14182;DHT22;7171;50.936;6.764;2023-07-09T03:43:35;23.10;94.60
14182;DHT22;7171;50.936;6.764;2023-07-09T03:46:01;23.10;95.60
14182;DHT22;7171;50.936;6.764;2023-07-09T03:48:28;23.10;96.70
14182;DHT22;7171;50.936;6.764;2023-07-09T03:50:55;23.10;99.90
14182;DHT22;7171;50.936;6.764;2023-07-09T03:53:22;23.10;97.50
14182;DHT22;7171;50.936;6.764;2023-07-09T03:55:53;23.00;97.50
14182;DHT22;7171;50.936;6.764;2023-07-09T03:58:23;23.00;98.00
14182;DHT22;7171;50.936;6.764;2023-07-09T04:00:50;23.00;99.90
14182;DHT22;7171;50.936;6.764;2023-07-09T04:03:16;22.90;99.90
14182;DHT22;7171;50.936;6.764;2023-07-09T04:05:43;23.00;98.30
14182;DHT22;7171;50.936;6.764;2023-07-09T04:08:10;23.20;94.90
14182;DHT22;7171;50.936;6.764;2023-07-09T04:10:36;22.90;92.30
14182;DHT22;7171;50.936;6.764;2023-07-09T04:13:03;22.90;90.90
14182;DHT22;7171;50.936;6.764;2023-07-09T04:15:31;22.90;91.50
14182;DHT22;7171;50.936;6.764;2023-07-09T04:17:58;22.80;93.10
14182;DHT22;7171;50.936;6.764;2023-07-09T04:20:25;22.90;93.50
14182;DHT22;7171;50.936;6.764;2023-07-09T04:22:52;23.00;93.70
14182;DHT22;7171;50.936;6.764;2023-07-09T04:25:19;22.80;93.80
14182;DHT22;7171;50.936;6.764;2023-07-09T04:27:45;22.90;94.00
14182;DHT22;7171;50.936;6.764;2023-07-09T04:30:14;22.90;95.40
14182;DHT22;7171;50.936;6.764;2023-07-09T04:32:42;22.90;95.80
14182;DHT22;7171;50.936;6.764;2023-07-09T04:35:10;22.90;95.90
14182;DHT22;7171;50.936;6.764;2023-07-09T04:37:38;22.90;96.70
14182;DHT22;7171;50.936;6.764;2023-07-09T04:40:06;22.90;97.20
14182;DHT22;7171;50.936;6.764;2023-07-09T04:42:36;22.90;97.40
14182;DHT22;7171;50.936;6.764;2023-07-09T04:45:03;22.90;97.80
14182;DHT22;7171;50.936;6.764;2023-07-09T04:47:30;23.00;98.60
14182;DHT22;7171;50.936;6.764;2023-07-09T04:49:58;23.00;98.90
14182;DHT22;7171;50.936;6.764;2023-07-09T04:52:24;22.90;96.80
14182;DHT22;7171;50.936;6.764;2023-07-09T04:54:51;22.90;96.60
14182;DHT22;7171;50.936;6.764;2023-07-09T04:57:18;23.00;96.70
14182;DHT22;7171;50.936;6.764;2023-07-09T04:59:44;23.00;96.60
14182;DHT22;7171;50.936;6.764;2023-07-09T05:02:11;23.00;96.60
14182;DHT22;7171;50.936;6.764;2023-07-09T05:04:38;23.00;96.70
14182;DHT22;7171;50.936;6.764;2023-07-09T05:07:06;23.00;96.70
14182;DHT22;7171;50.936;6.764;2023-07-09T05:09:33;23.10;96.80
14182;DHT22;7171;50.936;6.764;2023-07-09T05:12:00;23.10;96.80
14182;DHT22;7171;50.936;6.764;2023-07-09T05:14:27;23.20;96.90
14182;DHT22;7171;50.936;6.764;2023-07-09T05:16:54;23.20;97.00
14182;DHT22;7171;50.936;6.764;2023-07-09T05:19:21;23.20;97.10
14182;DHT22;7171;50.936;6.764;2023-07-09T05:21:47;23.30;97.40
14182;DHT22;7171;50.936;6.764;2023-07-09T05:24:15;23.20;97.40
14182;DHT22;7171;50.936;6.764;2023-07-09T05:26:42;23.40;97.50
14182;DHT22;7171;50.936;6.764;2023-07-09T05:29:09;23.50;97.60
14182;DHT22;7171;50.936;6.764;2023-07-09T05:31:36;23.50;97.60
14182;DHT22;7171;50.936;6.764;2023-07-09T05:34:02;23.70;97.80
14182;DHT22;7171;50.936;6.764;2023-07-09T05:36:29;23.60;97.90
14182;DHT22;7171;50.936;6.764;2023-07-09T05:38:56;23.60;98.00
14182;DHT22;7171;50.936;6.764;2023-07-09T05:41:24;23.70;97.50
14182;DHT22;7171;50.936;6.764;2023-07-09T05:43:52;23.70;96.60
14182;DHT22;7171;50.936;6.764;2023-07-09T05:46:21;23.80;97.60
14182;DHT22;7171;50.936;6.764;2023-07-09T05:48:48;23.80;99.90
14182;DHT22;7171;50.936;6.764;2023-07-09T05:51:15;23.80;99.90
14182;DHT22;7171;50.936;6.764;2023-07-09T05:53:42;24.00;99.90
14182;DHT22;7171;50.936;6.764;2023-07-09T05:56:08;24.00;98.10
14182;DHT22;7171;50.936;6.764;2023-07-09T05:58:37;24.00;99.90
14182;DHT22;7171;50.936;6.764;2023-07-09T06:01:04;24.10;99.90
14182;DHT22;7171;50.936;6.764;2023-07-09T06:08:26;24.10;99.90
14182;DHT22;7171;50.936;6.764;2023-07-09T06:10:54;24.20;99.90
14182;DHT22;7171;50.936;6.764;2023-07-09T06:13:22;24.20;99.90
14182;DHT22;7171;50.936;6.764;2023-07-09T06:15:51;24.30;99.90
14182;DHT22;7171;50.936;6.764;2023-07-09T06:23:13;24.40;99.90
14182;DHT22;7171;50.936;6.764;2023-07-09T06:25:40;24.50;99.90
14182;DHT22;7171;50.936;6.764;2023-07-09T06:28:07;24.50;99.90
14182;DHT22;7171;50.936;6.764;2023-07-09T06:35:29;24.70;99.90
14182;DHT22;7171;50.936;6.764;2023-07-09T06:37:56;24.90;99.90
14182;DHT22;7171;50.936;6.764;2023-07-09T06:40:22;24.80;99.90
14182;DHT22;7171;50.936;6.764;2023-07-09T06:42:50;24.90;99.90
14182;DHT22;7171;50.936;6.764;2023-07-09T06:45:16;25.00;97.20
14182;DHT22;7171;50.936;6.764;2023-07-09T06:47:43;25.00;97.70
14182;DHT22;7171;50.936;6.764;2023-07-09T06:50:11;25.10;99.30
14182;DHT22;7171;50.936;6.764;2023-07-09T06:52:38;25.10;99.90
14182;DHT22;7171;50.936;6.764;2023-07-09T06:55:06;25.30;99.90
14182;DHT22;7171;50.936;6.764;2023-07-09T06:57:33;25.20;96.70
14182;DHT22;7171;50.936;6.764;2023-07-09T07:00:00;25.40;95.80
14182;DHT22;7171;50.936;6.764;2023-07-09T07:02:26;25.40;94.80
14182;DHT22;7171;50.936;6.764;2023-07-09T07:04:53;25.40;94.70
14182;DHT22;7171;50.936;6.764;2023-07-09T07:07:22;25.50;96.00
14182;DHT22;7171;50.936;6.764;2023-07-09T07:09:49;25.60;97.10
14182;DHT22;7171;50.936;6.764;2023-07-09T07:12:24;25.70;98.70
14182;DHT22;7171;50.936;6.764;2023-07-09T07:14:51;25.80;96.70
14182;DHT22;7171;50.936;6.764;2023-07-09T07:17:18;25.80;94.50
14182;DHT22;7171;50.936;6.764;2023-07-09T07:19:45;25.90;94.50
14182;DHT22;7171;50.936;6.764;2023-07-09T07:22:12;26.00;94.40
14182;DHT22;7171;50.936;6.764;2023-07-09T07:24:40;26.10;94.40
14182;DHT22;7171;50.936;6.764;2023-07-09T07:27:08;26.20;94.50
14182;DHT22;7171;50.936;6.764;2023-07-09T07:29:35;26.20;94.60
14182;DHT22;7171;50.936;6.764;2023-07-09T07:32:01;26.30;94.60
14182;DHT22;7171;50.936;6.764;2023-07-09T07:34:29;26.40;94.50
14182;DHT22;7171;50.936;6.764;2023-07-09T07:36:55;26.40;94.50
14182;DHT22;7171;50.936;6.764;2023-07-09T07:39:22;26.50;94.70
14182;DHT22;7171;50.936;6.764;2023-07-09T07:41:50;26.50;94.70
14182;DHT22;7171;50.936;6.764;2023-07-09T07:44:17;26.60;95.60
14182;DHT22;7171;50.936;6.764;2023-07-09T07:46:44;26.70;94.90
14182;DHT22;7171;50.936;6.764;2023-07-09T07:49:11;26.80;95.10
14182;DHT22;7171;50.936;6.764;2023-07-09T07:51:38;26.90;98.50
14182;DHT22;7171;50.936;6.764;2023-07-09T07:56:35;27.10;99.90
14182;DHT22;7171;50.936;6.764;2023-07-09T07:59:03;27.20;94.70
14182;DHT22;7171;50.936;6.764;2023-07-09T08:01:30;27.30;95.40
14182;DHT22;7171;50.936;6.764;2023-07-09T08:03:57;27.40;94.70
14182;DHT22;7171;50.936;6.764;2023-07-09T08:08:51;27.60;94.50
14182;DHT22;7171;50.936;6.764;2023-07-09T08:11:17;27.70;96.30
14182;DHT22;7171;50.936;6.764;2023-07-09T08:13:44;27.80;99.90
14182;DHT22;7171;50.936;6.764;2023-07-09T08:16:12;27.90;99.90
14182;DHT22;7171;50.936;6.764;2023-07-09T08:18:39;27.90;94.60
14182;DHT22;7171;50.936;6.764;2023-07-09T08:21:06;28.00;94.60
14182;DHT22;7171;50.936;6.764;2023-07-09T08:23:33;28.20;94.60
14182;DHT22;7171;50.936;6.764;2023-07-09T08:26:01;28.20;94.60
14182;DHT22;7171;50.936;6.764;2023-07-09T08:28:28;28.40;94.60
14182;DHT22;7171;50.936;6.764;2023-07-09T08:30:56;28.50;94.60
14182;DHT22;7171;50.936;6.764;2023-07-09T08:33:24;28.60;94.50
14182;DHT22;7171;50.936;6.764;2023-07-09T08:35:53;28.70;94.50
14182;DHT22;7171;50.936;6.764;2023-07-09T08:38:19;28.80;94.50
14182;DHT22;7171;50.936;6.764;2023-07-09T08:40:53;29.00;94.50
14182;DHT22;7171;50.936;6.764;2023-07-09T08:43:30;29.10;94.50
14182;DHT22;7171;50.936;6.764;2023-07-09T08:46:03;29.20;94.40
14182;DHT22;7171;50.936;6.764;2023-07-09T08:48:37;29.20;94.30
14182;DHT22;7171;50.936;6.764;2023-07-09T08:51:12;29.30;94.30
14182;DHT22;7171;50.936;6.764;2023-07-09T08:53:44;29.40;94.30
14182;DHT22;7171;50.936;6.764;2023-07-09T08:56:13;29.50;94.30
14182;DHT22;7171;50.936;6.764;2023-07-09T08:58:41;29.70;94.80
14182;DHT22;7171;50.936;6.764;2023-07-09T09:03:46;29.90;94.00
14182;DHT22;7171;50.936;6.764;2023-07-09T09:06:15;29.90;94.30
14182;DHT22;7171;50.936;6.764;2023-07-09T09:08:47;30.00;94.20
14182;DHT22;7171;50.936;6.764;2023-07-09T09:11:21;30.10;94.10
14182;DHT22;7171;50.936;6.764;2023-07-09T09:13:53;30.20;94.00
14182;DHT22;7171;50.936;6.764;2023-07-09T09:16:25;30.40;94.00
14182;DHT22;7171;50.936;6.764;2023-07-09T09:18:56;30.50;93.90
14182;DHT22;7171;50.936;6.764;2023-07-09T09:23:54;30.90;94.40
14182;DHT22;7171;50.936;6.764;2023-07-09T09:26:28;30.90;93.90
14182;DHT22;7171;50.936;6.764;2023-07-09T09:28:56;31.10;94.00
14182;DHT22;7171;50.936;6.764;2023-07-09T09:31:24;31.20;94.10
14182;DHT22;7171;50.936;6.764;2023-07-09T09:33:52;31.30;94.10
14182;DHT22;7171;50.936;6.764;2023-07-09T09:36:22;31.30;93.90
14182;DHT22;7171;50.936;6.764;2023-07-09T09:38:49;31.40;94.00
14182;DHT22;7171;50.936;6.764;2023-07-09T09:41:18;31.50;93.80
14182;DHT22;7171;50.936;6.764;2023-07-09T09:43:47;31.50;93.60
14182;DHT22;7171;50.936;6.764;2023-07-09T09:46:17;31.60;93.60
14182;DHT22;7171;50.936;6.764;2023-07-09T09:48:46;31.70;93.70
14182;DHT22;7171;50.936;6.764;2023-07-09T09:51:13;31.70;93.70
14182;DHT22;7171;50.936;6.764;2023-07-09T09:53:46;31.80;93.60
14182;DHT22;7171;50.936;6.764;2023-07-09T09:56:17;31.90;93.80
14182;DHT22;7171;50.936;6.764;2023-07-09T09:58:44;32.00;93.80
14182;DHT22;7171;50.936;6.764;2023-07-09T10:01:14;32.10;93.70
14182;DHT22;7171;50.936;6.764;2023-07-09T10:03:41;32.10;93.70
14182;DHT22;7171;50.936;6.764;2023-07-09T10:06:14;32.20;93.80
14182;DHT22;7171;50.936;6.764;2023-07-09T10:08:49;32.30;93.70
14182;DHT22;7171;50.936;6.764;2023-07-09T10:11:23;32.40;93.70
14182;DHT22;7171;50.936;6.764;2023-07-09T10:13:55;32.50;94.10
14182;DHT22;7171;50.936;6.764;2023-07-09T10:19:09;32.60;94.00
14182;DHT22;7171;50.936;6.764;2023-07-09T10:24:25;32.80;93.10
14182;DHT22;7171;50.936;6.764;2023-07-09T10:27:02;32.90;93.50
14182;DHT22;7171;50.936;6.764;2023-07-09T10:29:42;32.90;93.00
14182;DHT22;7171;50.936;6.764;2023-07-09T10:32:24;33.00;93.00
14182;DHT22;7171;50.936;6.764;2023-07-09T10:34:57;33.00;93.30
14182;DHT22;7171;50.936;6.764;2023-07-09T10:37:45;33.10;93.00
14182;DHT22;7171;50.936;6.764;2023-07-09T10:40:21;33.10;92.80
14182;DHT22;7171;50.936;6.764;2023-07-09T10:42:52;33.10;92.70
14182;DHT22;7171;50.936;6.764;2023-07-09T10:45:23;33.20;92.80
14182;DHT22;7171;50.936;6.764;2023-07-09T10:47:57;33.30;92.80
14182;DHT22;7171;50.936;6.764;2023-07-09T10:50:28;33.30;92.60
14182;DHT22;7171;50.936;6.764;2023-07-09T10:52:58;33.40;92.50
14182;DHT22;7171;50.936;6.764;2023-07-09T10:55:32;33.50;92.50
14182;DHT22;7171;50.936;6.764;2023-07-09T10:58:02;33.50;92.40
14182;DHT22;7171;50.936;6.764;2023-07-09T11:00:34;33.50;92.50
14182;DHT22;7171;50.936;6.764;2023-07-09T11:03:04;33.60;92.30
14182;DHT22;7171;50.936;6.764;2023-07-09T11:05:33;33.60;92.40
14182;DHT22;7171;50.936;6.764;2023-07-09T11:08:04;33.70;92.30
14182;DHT22;7171;50.936;6.764;2023-07-09T11:10:36;33.80;92.30
14182;DHT22;7171;50.936;6.764;2023-07-09T11:13:09;33.90;92.20
14182;DHT22;7171;50.936;6.764;2023-07-09T11:15:40;33.90;91.90
14182;DHT22;7171;50.936;6.764;2023-07-09T11:18:13;34.00;91.80
14182;DHT22;7171;50.936;6.764;2023-07-09T11:20:44;34.00;91.50
14182;DHT22;7171;50.936;6.764;2023-07-09T11:23:18;34.00;91.20
14182;DHT22;7171;50.936;6.764;2023-07-09T11:25:48;34.00;91.00
14182;DHT22;7171;50.936;6.764;2023-07-09T11:28:15;34.00;90.90
14182;DHT22;7171;50.936;6.764;2023-07-09T11:30:49;34.00;90.60
14182;DHT22;7171;50.936;6.764;2023-07-09T11:33:18;34.00;90.50
14182;DHT22;7171;50.936;6.764;2023-07-09T11:35:46;34.00;90.40
14182;DHT22;7171;50.936;6.764;2023-07-09T11:38:17;34.00;90.60
14182;DHT22;7171;50.936;6.764;2023-07-09T11:40:51;34.10;90.50
14182;DHT22;7171;50.936;6.764;2023-07-09T11:43:29;34.20;90.40
14182;DHT22;7171;50.936;6.764;2023-07-09T11:46:06;34.30;89.60
14182;DHT22;7171;50.936;6.764;2023-07-09T11:48:34;34.40;89.40
14182;DHT22;7171;50.936;6.764;2023-07-09T11:51:08;34.50;89.30
14182;DHT22;7171;50.936;6.764;2023-07-09T11:53:40;34.60;88.10
14182;DHT22;7171;50.936;6.764;2023-07-09T11:56:09;34.60;87.30
14182;DHT22;7171;50.936;6.764;2023-07-09T11:58:36;34.70;87.80
14182;DHT22;7171;50.936;6.764;2023-07-09T12:01:16;34.70;88.10
14182;DHT22;7171;50.936;6.764;2023-07-09T12:03:45;34.90;88.40
14182;DHT22;7171;50.936;6.764;2023-07-09T12:06:20;35.00;88.70
14182;DHT22;7171;50.936;6.764;2023-07-09T12:08:48;35.10;90.20
14182;DHT22;7171;50.936;6.764;2023-07-09T12:11:22;35.20;88.50
14182;DHT22;7171;50.936;6.764;2023-07-09T12:13:49;35.30;90.00
14182;DHT22;7171;50.936;6.764;2023-07-09T12:16:24;35.30;89.10
14182;DHT22;7171;50.936;6.764;2023-07-09T12:18:51;35.40;87.40
14182;DHT22;7171;50.936;6.764;2023-07-09T12:21:18;35.40;87.60
14182;DHT22;7171;50.936;6.764;2023-07-09T12:23:45;35.50;87.90
14182;DHT22;7171;50.936;6.764;2023-07-09T12:26:15;35.60;88.20
14182;DHT22;7171;50.936;6.764;2023-07-09T12:28:48;35.70;86.90
14182;DHT22;7171;50.936;6.764;2023-07-09T12:31:16;35.80;87.40
14182;DHT22;7171;50.936;6.764;2023-07-09T12:33:48;35.80;87.40
14182;DHT22;7171;50.936;6.764;2023-07-09T12:36:16;35.80;88.10
14182;DHT22;7171;50.936;6.764;2023-07-09T12:38:46;35.90;87.30
14182;DHT22;7171;50.936;6.764;2023-07-09T12:41:19;35.80;86.70
14182;DHT22;7171;50.936;6.764;2023-07-09T12:43:47;35.80;85.70
14182;DHT22;7171;50.936;6.764;2023-07-09T12:46:14;35.70;84.70
14182;DHT22;7171;50.936;6.764;2023-07-09T12:48:41;35.70;84.10
14182;DHT22;7171;50.936;6.764;2023-07-09T12:51:08;35.50;83.50
14182;DHT22;7171;50.936;6.764;2023-07-09T12:56:11;35.30;82.40
14182;DHT22;7171;50.936;6.764;2023-07-09T12:58:39;35.30;82.90
14182;DHT22;7171;50.936;6.764;2023-07-09T13:01:15;35.10;82.20
14182;DHT22;7171;50.936;6.764;2023-07-09T13:03:42;35.10;82.30
14182;DHT22;7171;50.936;6.764;2023-07-09T13:06:27;34.90;81.90
14182;DHT22;7171;50.936;6.764;2023-07-09T13:08:56;34.90;82.00
14182;DHT22;7171;50.936;6.764;2023-07-09T13:11:23;34.80;81.60
14182;DHT22;7171;50.936;6.764;2023-07-09T13:13:54;34.70;81.10
14182;DHT22;7171;50.936;6.764;2023-07-09T13:16:23;34.60;81.00
14182;DHT22;7171;50.936;6.764;2023-07-09T13:18:49;34.50;80.80
14182;DHT22;7171;50.936;6.764;2023-07-09T13:21:17;34.50;81.00
14182;DHT22;7171;50.936;6.764;2023-07-09T13:23:44;34.40;81.10
14182;DHT22;7171;50.936;6.764;2023-07-09T13:26:12;34.40;80.70
14182;DHT22;7171;50.936;6.764;2023-07-09T13:28:39;34.30;80.90
14182;DHT22;7171;50.936;6.764;2023-07-09T13:31:11;34.20;80.70
14182;DHT22;7171;50.936;6.764;2023-07-09T13:33:41;34.10;80.50
14182;DHT22;7171;50.936;6.764;2023-07-09T13:36:08;34.10;80.60
14182;DHT22;7171;50.936;6.764;2023-07-09T13:38:36;34.00;80.00
14182;DHT22;7171;50.936;6.764;2023-07-09T13:41:11;34.00;80.10
14182;DHT22;7171;50.936;6.764;2023-07-09T13:43:39;33.90;80.70
14182;DHT22;7171;50.936;6.764;2023-07-09T13:46:07;33.90;80.30
14182;DHT22;7171;50.936;6.764;2023-07-09T13:48:35;33.80;80.60
14182;DHT22;7171;50.936;6.764;2023-07-09T13:51:13;33.70;80.60
14182;DHT22;7171;50.936;6.764;2023-07-09T13:53:40;33.50;80.70
14182;DHT22;7171;50.936;6.764;2023-07-09T13:56:07;33.10;79.80
14182;DHT22;7171;50.936;6.764;2023-07-09T13:58:33;33.00;80.10
14182;DHT22;7171;50.936;6.764;2023-07-09T14:01:09;32.80;80.00
14182;DHT22;7171;50.936;6.764;2023-07-09T14:03:36;32.50;79.90
14182;DHT22;7171;50.936;6.764;2023-07-09T14:06:04;32.00;80.30
14182;DHT22;7171;50.936;6.764;2023-07-09T14:08:31;32.10;80.00
14182;DHT22;7171;50.936;6.764;2023-07-09T14:13:25;31.60;96.10
14182;DHT22;7171;50.936;6.764;2023-07-09T14:15:52;31.50;79.70
14182;DHT22;7171;50.936;6.764;2023-07-09T14:18:20;31.20;79.80
14182;DHT22;7171;50.936;6.764;2023-07-09T14:23:19;31.00;80.20
14182;DHT22;7171;50.936;6.764;2023-07-09T14:28:16;30.50;80.40
14182;DHT22;7171;50.936;6.764;2023-07-09T14:30:43;30.30;80.50
14182;DHT22;7171;50.936;6.764;2023-07-09T14:35:39;29.70;80.20
14182;DHT22;7171;50.936;6.764;2023-07-09T14:40:40;29.10;78.50
14182;DHT22;7171;50.936;6.764;2023-07-09T14:43:09;28.70;80.20
14182;DHT22;7171;50.936;6.764;2023-07-09T14:45:37;28.20;80.70
14182;DHT22;7171;50.936;6.764;2023-07-09T14:57:58;25.30;87.30
14182;DHT22;7171;50.936;6.764;2023-07-09T15:00:26;25.30;88.00
14182;DHT22;7171;50.936;6.764;2023-07-09T15:02:53;25.00;86.10
14182;DHT22;7171;50.936;6.764;2023-07-09T15:05:23;24.60;86.70
14182;DHT22;7171;50.936;6.764;2023-07-09T15:07:50;24.30;87.70
14182;DHT22;7171;50.936;6.764;2023-07-09T15:10:21;24.10;87.60
14182;DHT22;7171;50.936;6.764;2023-07-09T15:12:49;23.90;88.00
14182;DHT22;7171;50.936;6.764;2023-07-09T15:15:20;23.70;87.80
14182;DHT22;7171;50.936;6.764;2023-07-09T15:17:48;23.50;88.80
14182;DHT22;7171;50.936;6.764;2023-07-09T15:20:16;23.40;90.60
14182;DHT22;7171;50.936;6.764;2023-07-09T15:22:44;23.30;91.70
14182;DHT22;7171;50.936;6.764;2023-07-09T15:25:14;23.30;91.70
14182;DHT22;7171;50.936;6.764;2023-07-09T15:27:41;23.20;91.60
14182;DHT22;7171;50.936;6.764;2023-07-09T15:30:17;23.30;92.40
14182;DHT22;7171;50.936;6.764;2023-07-09T15:32:47;23.20;92.50
14182;DHT22;7171;50.936;6.764;2023-07-09T15:35:15;23.30;93.10
14182;DHT22;7171;50.936;6.764;2023-07-09T15:37:43;23.30;94.00
14182;DHT22;7171;50.936;6.764;2023-07-09T15:40:17;23.30;94.80
14182;DHT22;7171;50.936;6.764;2023-07-09T15:42:45;23.30;93.80
14182;DHT22;7171;50.936;6.764;2023-07-09T15:45:14;23.40;94.60
14182;DHT22;7171;50.936;6.764;2023-07-09T15:47:41;23.40;95.20
14182;DHT22;7171;50.936;6.764;2023-07-09T15:50:16;23.50;95.80
14182;DHT22;7171;50.936;6.764;2023-07-09T15:52:43;23.60;96.20
14182;DHT22;7171;50.936;6.764;2023-07-09T15:55:14;23.60;96.90
14182;DHT22;7171;50.936;6.764;2023-07-09T15:57:41;23.70;97.30
14182;DHT22;7171;50.936;6.764;2023-07-09T16:00:14;23.70;97.60
14182;DHT22;7171;50.936;6.764;2023-07-09T16:02:42;23.70;97.60
14182;DHT22;7171;50.936;6.764;2023-07-09T16:05:22;23.80;97.90
14182;DHT22;7171;50.936;6.764;2023-07-09T16:07:51;23.80;97.50
14182;DHT22;7171;50.936;6.764;2023-07-09T16:10:18;23.80;97.40
14182;DHT22;7171;50.936;6.764;2023-07-09T16:12:45;23.90;97.60
14182;DHT22;7171;50.936;6.764;2023-07-09T16:15:14;23.80;98.00
14182;DHT22;7171;50.936;6.764;2023-07-09T16:17:41;23.90;98.00
14182;DHT22;7171;50.936;6.764;2023-07-09T16:20:09;23.90;98.70
14182;DHT22;7171;50.936;6.764;2023-07-09T16:22:38;24.00;99.90
14182;DHT22;7171;50.936;6.764;2023-07-09T16:25:13;24.00;99.90
14182;DHT22;7171;50.936;6.764;2023-07-09T16:27:42;24.00;99.90
14182;DHT22;7171;50.936;6.764;2023-07-09T16:30:13;24.00;99.90
14182;DHT22;7171;50.936;6.764;2023-07-09T16:32:40;24.00;99.90
14182;DHT22;7171;50.936;6.764;2023-07-09T16:35:10;24.00;99.90
14182;DHT22;7171;50.936;6.764;2023-07-09T16:37:38;23.90;99.90
14182;DHT22;7171;50.936;6.764;2023-07-09T16:40:10;23.90;99.90
14182;DHT22;7171;50.936;6.764;2023-07-09T16:42:39;23.90;99.90
14182;DHT22;7171;50.936;6.764;2023-07-09T16:45:06;23.90;99.90
14182;DHT22;7171;50.936;6.764;2023-07-09T16:47:33;24.00;99.90
14182;DHT22;7171;50.936;6.764;2023-07-09T16:50:00;24.10;99.90